Flight Track Log - Related Links

Times and Time Zones

All times are in EDT time to prevent confusion due to time zone crossing. See the EJA695 flight status page for this flight to view local times or setup timezone preferences in your user account.

Time Position Orientation Groundspeed Altitude Reporting Facility
EDT Latitude Longitude Course Direction KTS MPH feet Rate Location/Type
Sun 08:26:08 AM 43.6406 -70.2625 157° South 183 211 2,400  Level Boston Center
Sun 08:27:08 AM 43.5939 -70.2183 146° Southeast 223 257 5,400 3,050 Climbing Boston Center
Sun 08:28:08 AM 43.5144 -70.2128 177° South 258 297 8,500 2,800 Climbing Boston Center
Sun 08:29:08 AM 43.4331 -70.2014 174° South 292 336 11,000 2,300 Climbing Boston Center
Sun 08:30:08 AM 43.3431 -70.1903 175° South 318 366 13,100 1,950 Climbing Boston Center
Sun 08:31:00 AM 43.2632 -70.5361 157° South  Level FlightAware Approximate
Sun 08:31:08 AM 43.2511 -70.1794 175° South 333 383 14,900  Level Boston Center
Sun 08:32:09 AM 43.1531 -70.1689 176° South 343 395 17,000 1,950 Climbing Boston Center
Sun 08:33:08 AM 43.0653 -70.1581 175° South 351 404 18,800 1,765 Climbing Boston Center
Sun 08:34:08 AM 42.9692 -70.1472 175° South 351 404 20,500 1,600 Climbing Boston Center
Sun 08:35:08 AM 42.8731 -70.1367 175° South 351 404 22,000 750 Climbing Boston Center
Sun 08:36:08 AM 42.7625 -70.1239 175° South 358 412 22,000  Level Boston Center
Sun 08:37:08 AM 42.6642 -70.1106 174° South 358 412 22,000  Level Boston Center
Sun 08:38:08 AM 42.5639 -70.1003 176° South 365 420 22,000  Level Boston Center
Sun 08:39:08 AM 42.4639 -70.1069 183° South 364 419 22,000  Level Boston Center
Sun 08:40:08 AM 42.3925 -70.1828 218° Southwest 323 372 22,000  Level Boston Center
Sun 08:41:08 AM 42.3192 -70.2667 220° Southwest 337 388 22,000  Level Boston Center
Sun 08:42:08 AM 42.2500 -70.3533 223° Southwest 348 400 22,000  Level Boston Center
Sun 08:43:08 AM 42.2122 -70.4639 245° Southwest 338 389 22,000  Level Boston Center
Sun 08:44:08 AM 42.1747 -70.5800 246° West 338 389 22,000  Level Boston Center
Sun 08:45:08 AM 42.1306 -70.6906 242° Southwest 338 389 22,000  Level Boston Center
Sun 08:46:08 AM 42.0336 -70.7489 204° Southwest 343 395 22,000  Level Boston Center
Sun 08:47:08 AM 41.9272 -70.7519 181° South 345 397 22,000  Level Boston Center
Sun 08:48:20 AM 41.8231 -70.7519 180° South 361 415 22,000  Level Boston Center
Sun 08:49:20 AM 41.7022 -70.7578 182° South 379 436 22,000  Level Boston Center
Sun 08:50:20 AM 41.6006 -70.7883 193° South 390 449 22,000 -250 Level Boston Center
Sun 08:51:20 AM 41.5483 -70.9283 244° Southwest 340 391 21,500 -918 Descending Boston Center
Sun 08:51:58 AM 41.5200 -71.0039 243° Southwest 374 430 20,500 -1,886 Descending Boston Center
Sun 08:53:05 AM 41.4736 -71.1214 242° Southwest 306 352 18,200 -2,030 Descending Boston Center
Sun 08:54:11 AM 41.4269 -71.2303 240° Southwest 307 353 16,000 -2,220 Descending Boston Center
Sun 08:55:12 AM 41.3819 -71.3281 238° Southwest 305 351 13,500 -1,918 Descending Boston Center
Sun 08:56:13 AM 41.3372 -71.4200 237° Southwest 294 338 12,100 -1,304 Descending Boston Center
Sun 08:57:07 AM 41.2939 -71.4953 233° Southwest 295 339 11,000 -1,266 Descending Boston Center
Sun 08:58:02 AM 41.2569 -71.5703 237° Southwest 249 287 9,800 -1,271 Descending Boston Center
Sun 08:58:32 AM 41.2636 -71.6172 281° West 267 307 9,200 -1,333 Descending Boston Center
Sun 08:59:32 AM 41.2853 -71.7108 287° West 245 282 7,800 -1,732 Descending Boston Center
Sun 09:00:09 AM 41.2647 -71.7664 244° Southwest 255 293 6,400 -2,022 Descending Boston Center
Sun 09:01:04 AM 41.2275 -71.8303 232° Southwest 268 308 4,700 -1,230 Descending Boston Center
Sun 09:02:11 AM 41.1697 -71.9189 229° Southwest 263 303 3,900 -316 Descending Boston Center
Sun 09:03:17 AM 41.1219 -71.9964 231° Southwest 261 300 4,000  Climbing Boston Center
Sun 09:04:32 AM 41.0703 -72.0767 230° Southwest 267 307 3,900 -178 Descending Boston Center
Sun 09:05:32 AM 41.0308 -72.1319 227° Southwest 244 281 3,600 -900 Descending Boston Center
Sun 09:06:32 AM 40.9828 -72.1486 195° South 201 231 2,100 -1,500 Descending Boston Center
Sun 09:09:00 AM 40.9594 -72.2517 56° Northeast  Level Estimated
Sun 09:16:00 AM 40.9594 -72.2517 56° Northeast  Level Estimated
Sun 09:17:00 AM 40.9594 -72.2517 56° Northeast  Level Estimated
Sun 09:18:00 AM 40.9594 -72.2517 56° Northeast  Level Estimated
Sun 09:19:00 AM 40.9594 -72.2517 56° Northeast  Level Estimated

Login

Don't have an account? Register now (free) for customized features, flight alerts, and more!